Flight Track Log - Related Links

Times and Time Zones

All times are in EDT time to prevent confusion due to time zone crossing. See the RPA4937 flight status page for this flight to view local times or setup timezone preferences in your user account.

Time Position Orientation Groundspeed Altitude Reporting Facility
EDT Latitude Longitude Course Direction KTS MPH feet Rate Location/Type
Mon 08:33:19 AM 40.4867 -107.2294 90° East 23 26 6,500  Level Denver Center
Mon 08:34:20 AM 40.4875 -107.2342 283° West 15 17 6,500 148 Level Denver Center
Mon 08:35:21 AM 40.4772 -107.2086 118° Southeast 69 79 6,800 1,426 Climbing Denver Center
Mon 08:36:22 AM 40.4650 -107.1433 104° East 148 170 9,400 2,262 Climbing Denver Center
Mon 08:37:00 AM 40.5167 -106.7523 90° East  Level FlightAware Approximate
Mon 08:37:23 AM 40.4778 -107.0667 78° East 213 245 11,400  Level Denver Center
Mon 08:38:00 AM 40.5167 -106.6416 90° East  Level FlightAware Approximate
Mon 08:38:24 AM 40.4867 -106.9783 82° East 233 268 13,500  Level Denver Center
Mon 08:39:00 AM 40.5167 -106.5310 90° East  Level FlightAware Approximate
Mon 08:39:25 AM 40.4942 -106.8892 84° East 241 277 15,300  Level Denver Center
Mon 08:40:26 AM 40.5028 -106.7906 83° East 268 308 15,900 295 Climbing Denver Center
Mon 08:41:27 AM 40.5133 -106.6672 84° East 329 379 15,900  Level Denver Center
Mon 08:42:28 AM 40.5247 -106.5347 84° East 359 413 15,900 -49 Level Denver Center
Mon 08:43:29 AM 40.5231 -106.4253 91° East 369 425 15,800 148 Descending Denver Center
Mon 08:44:30 AM 40.5222 -106.2578 90° East 377 434 16,200 1,082 Climbing Denver Center
Mon 08:45:31 AM 40.5231 -106.1339 89° East 345 397 18,000 1,377 Climbing Denver Center
Mon 08:46:32 AM 40.5214 -106.0225 91° East 312 359 19,000 492 Climbing Denver Center
Mon 08:47:33 AM 40.5197 -105.9036 91° East 321 369 19,000 -313 Level Denver Center
Mon 08:48:46 AM 40.5186 -105.7761 91° East 342 394 18,300 -761 Descending Denver Center
Mon 08:49:47 AM 40.5108 -105.6319 94° East 337 388 17,300 -836 Descending Denver Center
Mon 08:50:48 AM 40.4575 -105.5514 131° Southeast 295 339 16,600 -639 Descending Denver Center
Mon 08:51:49 AM 40.4342 -105.4153 103° East 336 387 16,000 -738 Descending Denver Center
Mon 08:52:50 AM 40.4119 -105.2981 104° East 333 383 15,100 -1,033 Descending Denver Center
Mon 08:53:51 AM 40.3894 -105.1764 104° East 321 369 13,900 -1,033 Descending Denver Center
Mon 08:54:52 AM 40.3706 -105.0819 105° East 274 315 13,000 -689 Descending Denver Center
Mon 08:55:53 AM 40.3419 -104.9956 113° Southeast 267 307 12,500 -836 Descending Denver Center
Mon 08:56:54 AM 40.3011 -104.9181 125° Southeast 258 297 11,300 -1,279 Descending Denver Center
Mon 08:57:55 AM 40.2542 -104.8367 127° Southeast 262 302 9,900 -1,033 Descending Denver Center
Mon 08:58:56 AM 40.1886 -104.8011 157° South 254 292 9,200 -639 Descending Denver Center
Mon 08:59:57 AM 40.1258 -104.7656 157° South 248 285 8,600 -590 Descending Denver Center
Mon 09:00:58 AM 40.0625 -104.7297 157° South 248 285 8,000 -738 Descending Denver Center
Mon 09:01:59 AM 40.0003 -104.6992 159° South 235 270 7,100 -885 Descending Denver Center
Mon 09:03:00 AM 39.9444 -104.6953 177° South 189 217 6,200 -787 Descending Denver Center
Mon 09:04:01 AM 39.9061 -104.6956 180° South 143 165 5,500 -443 Descending Denver Center
Mon 09:05:02 AM 39.8792 -104.6961 181° South 117 135 5,300 -197 Descending Denver Center
Mon 09:07:00 AM 39.8617 -104.6732 165° South  Level Estimated
Mon 09:14:00 AM 39.8617 -104.6732 339° North  Level Estimated

Login

Don't have an account? Register now (free) for customized features, flight alerts, and more!